createdAt,value
2023-03-02T00:00:59.488Z,0.8
2023-03-02T00:02:00.082Z,0.8
2023-03-02T00:02:59.795Z,0.8
2023-03-02T00:04:00.376Z,0.8
2023-03-02T00:04:59.986Z,0.9
2023-03-02T00:05:59.523Z,0.8
2023-03-02T00:07:00.129Z,0.8
2023-03-02T00:07:59.740Z,0.9
2023-03-02T00:09:00.346Z,0.8
2023-03-02T00:09:59.936Z,0.8
2023-03-02T00:10:59.519Z,0.8
2023-03-02T00:12:00.119Z,0.9
2023-03-02T00:12:59.722Z,0.9
2023-03-02T00:14:00.316Z,0.9
2023-03-02T00:15:00.050Z,0.9
2023-03-02T00:15:59.582Z,0.9
2023-03-02T00:17:00.128Z,0.9
2023-03-02T00:17:59.743Z,0.8
2023-03-02T00:19:00.299Z,0.9
2023-03-02T00:19:59.886Z,0.9
2023-03-02T00:20:59.493Z,0.8
2023-03-02T00:22:00.060Z,0.8
2023-03-02T00:22:59.651Z,0.8
2023-03-02T00:24:00.261Z,0.9
2023-03-02T00:24:59.856Z,0.8
2023-03-02T00:25:59.438Z,0.8
2023-03-02T00:27:00.027Z,0.7
2023-03-02T00:27:59.679Z,0.8
2023-03-02T00:29:00.215Z,0.8
2023-03-02T00:29:59.824Z,0.7
2023-03-02T00:30:59.561Z,0.7
2023-03-02T00:32:00.066Z,0.7
2023-03-02T00:32:59.627Z,0.7
2023-03-02T00:34:00.197Z,0.7
2023-03-02T00:34:59.788Z,0.6
2023-03-02T00:35:59.386Z,0.6
2023-03-02T00:36:59.967Z,0.6
2023-03-02T00:37:59.559Z,0.6
2023-03-02T00:39:00.131Z,0.6
2023-03-02T00:39:59.715Z,0.5
2023-03-02T00:41:00.288Z,0.5
2023-03-02T00:41:59.900Z,0.5
2023-03-02T00:42:59.494Z,0.5
2023-03-02T00:44:00.093Z,0.5
2023-03-02T00:44:59.681Z,0.6
2023-03-02T00:46:00.284Z,0.5
2023-03-02T00:46:59.968Z,0.5
2023-03-02T00:47:59.519Z,0.5
2023-03-02T00:49:00.107Z,0.5
2023-03-02T00:49:59.742Z,0.5
2023-03-02T00:51:00.330Z,0.4
2023-03-02T00:51:59.928Z,0.5
2023-03-02T00:52:59.525Z,0.4
2023-03-02T00:54:00.123Z,0.5
2023-03-02T00:54:59.748Z,0.4
2023-03-02T00:56:00.304Z,0.4
2023-03-02T00:56:59.894Z,0.5
2023-03-02T00:57:59.480Z,0.4
2023-03-02T00:59:00.135Z,0.4
2023-03-02T00:59:59.751Z,0.3
2023-03-02T01:01:00.311Z,0.3
2023-03-02T01:01:59.943Z,0.2
2023-03-02T01:02:59.728Z,0.2
2023-03-02T01:04:00.155Z,0.2
2023-03-02T01:04:59.743Z,0.2
2023-03-02T01:06:00.320Z,0.1
2023-03-02T01:06:59.911Z,0.1
2023-03-02T01:07:59.542Z,0.1
2023-03-02T01:09:00.130Z,0
2023-03-02T01:09:59.731Z,0.1
2023-03-02T01:11:00.329Z,0
2023-03-02T01:11:59.926Z,0
2023-03-02T01:12:59.539Z,0
2023-03-02T01:14:00.124Z,0
2023-03-02T01:14:59.752Z,0
2023-03-02T01:16:00.364Z,0
2023-03-02T01:16:59.993Z,0
2023-03-02T01:17:59.565Z,0
2023-03-02T01:19:00.147Z,0
2023-03-02T01:19:59.750Z,0
2023-03-02T01:21:00.327Z,0
2023-03-02T01:21:59.940Z,0
2023-03-02T01:22:59.544Z,-0.1
2023-03-02T01:24:00.126Z,-0.1
2023-03-02T01:24:59.742Z,-0.1
2023-03-02T01:26:00.319Z,-0.1
2023-03-02T01:26:59.906Z,-0.1
2023-03-02T01:27:59.492Z,-0.2
2023-03-02T01:29:00.132Z,-0.2
2023-03-02T01:29:59.734Z,-0.1
2023-03-02T01:31:00.289Z,-0.2
2023-03-02T01:32:00.087Z,-0.2
2023-03-02T01:32:59.530Z,-0.1
2023-03-02T01:34:00.140Z,-0.2
2023-03-02T01:34:59.796Z,-0.2
2023-03-02T01:36:00.406Z,-0.2
2023-03-02T01:37:00.013Z,-0.2
2023-03-02T01:37:59.564Z,-0.2
2023-03-02T01:39:00.120Z,-0.2
2023-03-02T01:39:59.703Z,-0.2
2023-03-02T01:41:00.300Z,-0.2
2023-03-02T01:41:59.918Z,-0.2
2023-03-02T01:42:59.505Z,-0.3
2023-03-02T01:44:00.107Z,-0.3
2023-03-02T01:44:59.719Z,-0.3
2023-03-02T01:46:00.372Z,-0.3
2023-03-02T01:47:00.056Z,-0.3
2023-03-02T01:47:59.532Z,-0.3
2023-03-02T01:49:00.133Z,-0.4
2023-03-02T01:49:59.720Z,-0.4
2023-03-02T01:51:00.331Z,-0.5
2023-03-02T01:51:59.941Z,-0.5
2023-03-02T01:52:59.534Z,-0.5
2023-03-02T01:54:00.107Z,-0.5
2023-03-02T01:54:59.714Z,-0.5
2023-03-02T01:56:00.285Z,-0.6
2023-03-02T01:56:59.912Z,-0.5
2023-03-02T01:57:59.500Z,-0.6
2023-03-02T01:59:00.088Z,-0.6
2023-03-02T01:59:59.702Z,-0.6
2023-03-02T02:01:00.322Z,-0.6
2023-03-02T02:01:59.931Z,-0.7
2023-03-02T02:02:59.492Z,-0.6
2023-03-02T02:04:00.156Z,-0.7
2023-03-02T02:04:59.736Z,-0.7
2023-03-02T02:06:00.321Z,-0.7
2023-03-02T02:06:59.949Z,-0.7
2023-03-02T02:07:59.557Z,-0.7
2023-03-02T02:09:00.127Z,-0.7
2023-03-02T02:09:59.710Z,-0.7
2023-03-02T02:11:00.298Z,-0.7
2023-03-02T02:11:59.883Z,-0.7
2023-03-02T02:12:59.493Z,-0.8
2023-03-02T02:14:00.047Z,-0.7
2023-03-02T02:14:59.637Z,-0.7
2023-03-02T02:16:00.207Z,-0.7
2023-03-02T02:16:59.889Z,-0.7
2023-03-02T02:17:59.452Z,-0.7
2023-03-02T02:19:00.001Z,-0.8
2023-03-02T02:19:59.591Z,-0.7
2023-03-02T02:21:00.169Z,-0.7
2023-03-02T02:21:59.762Z,-0.7
2023-03-02T02:22:59.394Z,-0.7
2023-03-02T02:23:59.921Z,-0.7
2023-03-02T02:24:59.511Z,-0.7
2023-03-02T02:26:00.118Z,-0.7
2023-03-02T02:26:59.709Z,-0.6
2023-03-02T02:28:00.282Z,-0.6
2023-03-02T02:28:59.896Z,-0.7
2023-03-02T02:29:59.532Z,-0.7
2023-03-02T02:31:00.059Z,-0.7
2023-03-02T02:31:59.756Z,-0.7
2023-03-02T02:33:00.223Z,-0.7
2023-03-02T02:33:59.830Z,-0.7
2023-03-02T02:34:59.432Z,-0.8
2023-03-02T02:36:00.008Z,-0.7
2023-03-02T02:36:59.615Z,-0.7
2023-03-02T02:38:00.196Z,-0.8
2023-03-02T02:38:59.810Z,-0.7
2023-03-02T02:39:59.375Z,-0.7
2023-03-02T02:40:59.933Z,-0.7
2023-03-02T02:41:59.524Z,-0.8
2023-03-02T02:43:00.128Z,-0.7
2023-03-02T02:43:59.715Z,-0.7
2023-03-02T02:45:00.334Z,-0.7
2023-03-02T02:46:00.097Z,-0.7
2023-03-02T02:46:59.509Z,-0.7
2023-03-02T02:48:00.110Z,-0.7
2023-03-02T02:48:59.707Z,-0.7
2023-03-02T02:50:00.299Z,-0.7
2023-03-02T02:50:59.948Z,-0.8
2023-03-02T02:51:59.526Z,-0.7
2023-03-02T02:53:00.118Z,-0.7
2023-03-02T02:53:59.728Z,-0.7
2023-03-02T02:55:00.322Z,-0.7
2023-03-02T02:55:59.931Z,-0.7
2023-03-02T02:56:59.520Z,-0.7
2023-03-02T02:58:00.116Z,-0.7
2023-03-02T02:58:59.731Z,-0.7
2023-03-02T03:00:00.305Z,-0.7
2023-03-02T03:00:59.938Z,-0.7
2023-03-02T03:01:59.519Z,-0.7
2023-03-02T03:03:00.121Z,-0.8
2023-03-02T03:03:59.758Z,-0.8
2023-03-02T03:05:00.299Z,-0.7
2023-03-02T03:05:59.897Z,-0.6
2023-03-02T03:06:59.491Z,-0.7
2023-03-02T03:08:00.115Z,-0.7
2023-03-02T03:08:59.718Z,-0.7
2023-03-02T03:10:00.354Z,-0.8
2023-03-02T03:10:59.996Z,-0.8
2023-03-02T03:11:59.530Z,-0.7
2023-03-02T03:13:00.135Z,-0.7
2023-03-02T03:13:59.743Z,-0.8
2023-03-02T03:15:00.297Z,-0.8
2023-03-02T03:15:59.884Z,-0.7
2023-03-02T03:16:59.506Z,-0.8
2023-03-02T03:18:00.081Z,-0.9
2023-03-02T03:18:59.724Z,-0.8
2023-03-02T03:20:00.273Z,-0.8
2023-03-02T03:20:59.861Z,-0.9
2023-03-02T03:21:59.453Z,-0.8
2023-03-02T03:23:00.046Z,-0.8
2023-03-02T03:23:59.656Z,-0.9
2023-03-02T03:25:00.225Z,-0.9
2023-03-02T03:25:59.821Z,-0.8
2023-03-02T03:26:59.523Z,-0.9
2023-03-02T03:27:59.984Z,-0.8
2023-03-02T03:28:59.593Z,-0.9
2023-03-02T03:30:00.201Z,-0.9
2023-03-02T03:30:59.868Z,-0.9
2023-03-02T03:31:59.408Z,-1
2023-03-02T03:32:59.955Z,-1.1
2023-03-02T03:33:59.565Z,-1.1
2023-03-02T03:35:00.157Z,-1
2023-03-02T03:35:59.819Z,-1
2023-03-02T03:37:00.326Z,-0.9
2023-03-02T03:37:59.913Z,-0.9
2023-03-02T03:38:59.526Z,-1
2023-03-02T03:40:00.108Z,-1
2023-03-02T03:40:59.701Z,-1
2023-03-02T03:42:00.278Z,-0.9
2023-03-02T03:42:59.896Z,-0.8
2023-03-02T03:43:59.514Z,-0.9
2023-03-02T03:45:00.091Z,-1
2023-03-02T03:45:59.701Z,-0.9
2023-03-02T03:47:00.261Z,-0.9
2023-03-02T03:47:59.859Z,-0.9
2023-03-02T03:48:59.470Z,-0.8
2023-03-02T03:50:00.038Z,-0.9
2023-03-02T03:50:59.648Z,-0.9
2023-03-02T03:52:00.225Z,-1
2023-03-02T03:53:01.336Z,-0.9
2023-03-02T03:54:00.312Z,-0.9
2023-03-02T03:54:59.929Z,-0.8
2023-03-02T03:55:59.529Z,-0.8
2023-03-02T03:57:00.113Z,-0.8
2023-03-02T03:57:59.702Z,-0.8
2023-03-02T03:59:00.320Z,-0.7
2023-03-02T03:59:59.910Z,-0.7
2023-03-02T04:00:59.527Z,-0.7
2023-03-02T04:02:00.208Z,-0.7
2023-03-02T04:02:59.821Z,-0.7
2023-03-02T04:04:00.309Z,-0.7
2023-03-02T04:04:59.915Z,-0.7
2023-03-02T04:05:59.503Z,-0.7
2023-03-02T04:07:00.110Z,-0.6
2023-03-02T04:07:59.707Z,-0.8
2023-03-02T04:09:00.290Z,-0.7
2023-03-02T04:09:59.902Z,-0.7
2023-03-02T04:10:59.488Z,-0.6
2023-03-02T04:12:00.074Z,-0.6
2023-03-02T04:12:59.687Z,-0.6
2023-03-02T04:14:00.260Z,-0.7
2023-03-02T04:14:59.901Z,-0.6
2023-03-02T04:15:59.506Z,-0.6
2023-03-02T04:17:00.097Z,-0.5
2023-03-02T04:17:59.692Z,-0.5
2023-03-02T04:19:00.261Z,-0.5
2023-03-02T04:19:59.872Z,-0.5
2023-03-02T04:20:59.496Z,-0.5
2023-03-02T04:22:00.127Z,-0.6
2023-03-02T04:22:59.719Z,-0.6
2023-03-02T04:24:00.302Z,-0.7
2023-03-02T04:24:59.892Z,-0.7
2023-03-02T04:25:59.485Z,-0.7
2023-03-02T04:27:00.091Z,-0.7
2023-03-02T04:27:59.685Z,-0.7
2023-03-02T04:29:00.263Z,-0.7
2023-03-02T04:29:59.849Z,-0.7
2023-03-02T04:30:59.567Z,-0.8
2023-03-02T04:32:00.102Z,-0.8
2023-03-02T04:32:59.705Z,-0.7
2023-03-02T04:34:00.252Z,-0.8
2023-03-02T04:34:59.848Z,-0.8
2023-03-02T04:35:59.463Z,-0.8
2023-03-02T04:37:00.020Z,-0.8
2023-03-02T04:37:59.633Z,-0.8
2023-03-02T04:39:00.197Z,-0.8
2023-03-02T04:39:59.791Z,-0.8
2023-03-02T04:40:59.379Z,-0.8
2023-03-02T04:41:59.948Z,-0.8
2023-03-02T04:42:59.568Z,-0.9
2023-03-02T04:44:00.124Z,-0.9
2023-03-02T04:44:59.732Z,-0.9
2023-03-02T04:46:00.325Z,-0.9
2023-03-02T04:47:00.005Z,-0.9
2023-03-02T04:47:59.535Z,-0.9
2023-03-02T04:49:00.110Z,-0.9
2023-03-02T04:49:59.724Z,-0.9
2023-03-02T04:51:00.278Z,-0.8
2023-03-02T04:51:59.889Z,-0.8
2023-03-02T04:52:59.482Z,-0.8
2023-03-02T04:54:00.121Z,-0.8
2023-03-02T04:54:59.716Z,-0.9
2023-03-02T04:56:00.298Z,-0.9
2023-03-02T04:56:59.903Z,-0.9
2023-03-02T04:57:59.496Z,-0.8
2023-03-02T04:59:00.063Z,-0.8
2023-03-02T04:59:59.668Z,-0.7
2023-03-02T05:01:00.265Z,-0.7
2023-03-02T05:01:59.919Z,-0.8
2023-03-02T05:02:59.503Z,-0.8
2023-03-02T05:04:02.516Z,-0.9
2023-03-02T05:04:59.680Z,-0.9
2023-03-02T05:06:00.255Z,-0.9
2023-03-02T05:06:59.867Z,-1
2023-03-02T05:07:59.467Z,-1
2023-03-02T05:09:00.047Z,-0.9
2023-03-02T05:09:59.637Z,-1
2023-03-02T05:11:00.208Z,-1
2023-03-02T05:11:59.818Z,-1
2023-03-02T05:12:59.366Z,-1
2023-03-02T05:13:59.949Z,-1
2023-03-02T05:14:59.537Z,-0.9
2023-03-02T05:16:00.172Z,-1
2023-03-02T05:16:59.776Z,-0.9
2023-03-02T05:17:59.545Z,-0.8
2023-03-02T05:18:59.957Z,-0.8
2023-03-02T05:19:59.683Z,-0.7
2023-03-02T05:21:00.134Z,-0.7
2023-03-02T05:21:59.742Z,-0.7
2023-03-02T05:23:00.310Z,-0.6
2023-03-02T05:24:00.036Z,-0.5
2023-03-02T05:24:59.572Z,-0.4
2023-03-02T05:26:00.143Z,-0.4
2023-03-02T05:26:59.737Z,-0.4
2023-03-02T05:28:00.328Z,-0.3
2023-03-02T05:28:59.958Z,-0.3
2023-03-02T05:29:59.579Z,-0.3
2023-03-02T05:31:00.382Z,-0.3
2023-03-02T05:31:59.931Z,-0.3
2023-03-02T05:32:59.377Z,-0.3
2023-03-02T05:33:59.959Z,-0.3
2023-03-02T05:34:59.588Z,-0.3
2023-03-02T05:36:00.203Z,-0.3
2023-03-02T05:36:59.781Z,-0.3
2023-03-02T05:37:59.367Z,-0.3
2023-03-02T05:38:59.954Z,-0.3
2023-03-02T05:39:59.564Z,-0.2
2023-03-02T05:41:00.164Z,-0.3
2023-03-02T05:41:59.765Z,-0.2
2023-03-02T05:42:59.404Z,-0.2
2023-03-02T05:43:59.926Z,-0.2
2023-03-02T05:44:59.544Z,-0.2
2023-03-02T05:46:00.132Z,-0.2
2023-03-02T05:46:59.794Z,-0.2
2023-03-02T05:48:00.311Z,-0.3
2023-03-02T05:48:59.898Z,-0.3
2023-03-02T05:49:59.486Z,-0.3
2023-03-02T05:51:00.127Z,-0.3
2023-03-02T05:51:59.714Z,-0.3
2023-03-02T05:53:00.303Z,-0.3
2023-03-02T05:53:59.952Z,-0.4
2023-03-02T05:54:59.640Z,-0.4
2023-03-02T05:56:00.147Z,-0.4
2023-03-02T05:56:59.736Z,-0.5
2023-03-02T05:58:00.325Z,-0.4
2023-03-02T05:58:59.941Z,-0.4
2023-03-02T05:59:59.536Z,-0.5
2023-03-02T06:01:00.136Z,-0.5
2023-03-02T06:01:59.758Z,-0.5
2023-03-02T06:03:00.311Z,-0.5
2023-03-02T06:03:59.966Z,-0.4
2023-03-02T06:04:59.549Z,-0.5
2023-03-02T06:06:00.141Z,-0.4
2023-03-02T06:06:59.762Z,-0.4
2023-03-02T06:08:00.321Z,-0.5
2023-03-02T06:08:59.932Z,-0.6
2023-03-02T06:09:59.524Z,-0.5
2023-03-02T06:11:00.106Z,-0.6
2023-03-02T06:11:59.693Z,-0.6
2023-03-02T06:13:00.284Z,-0.7
2023-03-02T06:13:59.890Z,-0.7
2023-03-02T06:14:59.485Z,-0.7
2023-03-02T06:16:00.157Z,-0.7
2023-03-02T06:16:59.816Z,-0.7
2023-03-02T06:18:00.302Z,-0.9
2023-03-02T06:18:59.928Z,-0.8
2023-03-02T06:19:59.522Z,-0.9
2023-03-02T06:21:00.132Z,-0.9
2023-03-02T06:21:59.732Z,-0.9
2023-03-02T06:23:00.335Z,-0.9
2023-03-02T06:23:59.947Z,-0.9
2023-03-02T06:24:59.534Z,-0.9
2023-03-02T06:26:00.132Z,-0.9
2023-03-02T06:26:59.731Z,-1
2023-03-02T06:28:00.318Z,-0.9
2023-03-02T06:28:59.923Z,-0.9
2023-03-02T06:29:59.510Z,-0.9
2023-03-02T06:31:00.114Z,-1
2023-03-02T06:31:59.925Z,-1
2023-03-02T06:33:00.286Z,-1
2023-03-02T06:33:59.886Z,-1
2023-03-02T06:34:59.506Z,-0.9
2023-03-02T06:36:00.221Z,-1
2023-03-02T06:36:59.714Z,-0.9
2023-03-02T06:38:00.266Z,-0.9
2023-03-02T06:38:59.971Z,-0.9
2023-03-02T06:39:59.501Z,-0.9
2023-03-02T06:41:00.150Z,-0.9
2023-03-02T06:41:59.737Z,-1
2023-03-02T06:43:01.297Z,-0.9
2023-03-02T06:43:59.686Z,-0.9
2023-03-02T06:45:00.299Z,-0.9
2023-03-02T06:45:59.900Z,-0.9
2023-03-02T06:46:59.509Z,-0.9
2023-03-02T06:48:00.110Z,-0.9
2023-03-02T06:48:59.719Z,-0.8
2023-03-02T06:50:00.293Z,-0.8
2023-03-02T06:50:59.896Z,-0.8
2023-03-02T06:51:59.496Z,-0.8
2023-03-02T06:53:00.071Z,-0.7
2023-03-02T06:53:59.699Z,-0.7
2023-03-02T06:55:00.301Z,-0.8
2023-03-02T06:55:59.896Z,-0.7
2023-03-02T06:56:59.478Z,-0.7
2023-03-02T06:58:00.093Z,-0.7
2023-03-02T06:58:59.717Z,-0.7
2023-03-02T07:00:00.296Z,-0.6
2023-03-02T07:00:59.922Z,-0.6
2023-03-02T07:01:59.497Z,-0.6
2023-03-02T07:03:00.106Z,-0.5
2023-03-02T07:03:59.768Z,-0.5
2023-03-02T07:05:00.317Z,-0.5
2023-03-02T07:05:59.915Z,-0.5
2023-03-02T07:06:59.509Z,-0.4
2023-03-02T07:08:00.121Z,-0.4
2023-03-02T07:08:59.717Z,-0.4
2023-03-02T07:10:00.320Z,-0.4
2023-03-02T07:10:59.965Z,-0.3
2023-03-02T07:11:59.519Z,-0.4
2023-03-02T07:13:00.107Z,-0.3
2023-03-02T07:13:59.721Z,-0.3
2023-03-02T07:15:00.271Z,-0.3
2023-03-02T07:15:59.884Z,-0.3
2023-03-02T07:16:59.505Z,-0.2
2023-03-02T07:18:00.058Z,-0.2
2023-03-02T07:18:59.664Z,-0.2
2023-03-02T07:20:00.246Z,-0.2
2023-03-02T07:20:59.830Z,-0.2
2023-03-02T07:21:59.440Z,-0.1
2023-03-02T07:22:59.990Z,-0.1
2023-03-02T07:23:59.593Z,-0.1
2023-03-02T07:25:00.171Z,0
2023-03-02T07:25:59.763Z,0
2023-03-02T07:26:59.394Z,0
2023-03-02T07:27:59.921Z,0
2023-03-02T07:28:59.511Z,0
2023-03-02T07:30:00.137Z,0
2023-03-02T07:30:59.776Z,0
2023-03-02T07:32:00.453Z,0.1
2023-03-02T07:33:00.161Z,0
2023-03-02T07:33:59.536Z,0.1
2023-03-02T07:35:00.112Z,0.1
2023-03-02T07:35:59.756Z,0.2
2023-03-02T07:37:00.308Z,0.3
2023-03-02T07:37:59.936Z,0.3
2023-03-02T07:38:59.550Z,0.3
2023-03-02T07:40:00.861Z,0.3
2023-03-02T07:40:59.570Z,0.3
2023-03-02T07:42:00.177Z,0.3
2023-03-02T07:42:59.791Z,0.4
2023-03-02T07:43:59.375Z,0.4
2023-03-02T07:44:59.941Z,0.4
2023-03-02T07:45:59.761Z,0.4
2023-03-02T07:47:00.141Z,0.6
2023-03-02T07:47:59.726Z,0.6
2023-03-02T07:49:00.334Z,0.6
2023-03-02T07:49:59.931Z,0.6
2023-03-02T07:50:59.526Z,0.7
2023-03-02T07:52:00.110Z,0.8
2023-03-02T07:53:00.110Z,0.8
2023-03-02T07:54:00.301Z,0.8
2023-03-02T07:54:59.895Z,0.9
2023-03-02T07:55:59.514Z,0.9
2023-03-02T07:57:00.126Z,1.1
2023-03-02T07:57:59.716Z,1.1
2023-03-02T07:59:00.394Z,1.1
2023-03-02T07:59:59.988Z,1.2
2023-03-02T08:00:59.537Z,1.1
2023-03-02T08:02:00.216Z,1.2
2023-03-02T08:02:59.813Z,1.3
2023-03-02T08:03:59.344Z,1.3
2023-03-02T08:04:59.926Z,1.3
2023-03-02T08:05:59.514Z,1.4
2023-03-02T08:07:00.128Z,1.4
2023-03-02T08:07:59.715Z,1.5
2023-03-02T08:09:00.284Z,1.5
2023-03-02T08:09:59.885Z,1.6
2023-03-02T08:10:59.479Z,1.6
2023-03-02T08:12:00.112Z,1.7
2023-03-02T08:12:59.735Z,1.8
2023-03-02T08:14:00.297Z,1.8
2023-03-02T08:14:59.923Z,1.8
2023-03-02T08:15:59.542Z,1.8
2023-03-02T08:17:00.125Z,1.9
2023-03-02T08:17:59.732Z,1.9
2023-03-02T08:19:00.294Z,1.9
2023-03-02T08:19:59.883Z,1.9
2023-03-02T08:20:59.480Z,2
2023-03-02T08:22:00.063Z,2
2023-03-02T08:22:59.687Z,2
2023-03-02T08:24:00.250Z,2
2023-03-02T08:24:59.866Z,2
2023-03-02T08:25:59.440Z,2
2023-03-02T08:27:00.031Z,2.2
2023-03-02T08:27:59.638Z,2.1
2023-03-02T08:29:00.221Z,2.2
2023-03-02T08:29:59.821Z,2.2
2023-03-02T08:30:59.423Z,2.3
2023-03-02T08:32:00.114Z,2.3
2023-03-02T08:33:03.129Z,2.3
2023-03-02T08:34:00.300Z,2.3
2023-03-02T08:34:59.879Z,2.4
2023-03-02T08:35:59.529Z,2.5
2023-03-02T08:37:00.052Z,2.5
2023-03-02T08:37:59.671Z,2.6
2023-03-02T08:39:00.268Z,2.5
2023-03-02T08:39:59.894Z,2.6
2023-03-02T08:40:59.493Z,2.5
2023-03-02T08:42:00.069Z,2.5
2023-03-02T08:42:59.666Z,2.6
2023-03-02T08:44:00.254Z,2.7
2023-03-02T08:44:59.870Z,2.7
2023-03-02T08:45:59.522Z,2.8
2023-03-02T08:47:00.071Z,2.8
2023-03-02T08:47:59.661Z,2.9
2023-03-02T08:49:00.250Z,2.9
2023-03-02T08:49:59.870Z,3
2023-03-02T08:50:59.489Z,3
2023-03-02T08:52:00.043Z,3
2023-03-02T08:52:59.640Z,2.9
2023-03-02T08:54:00.222Z,3
2023-03-02T08:55:00.839Z,3.1
2023-03-02T08:56:00.244Z,3.1
2023-03-02T08:56:59.834Z,3.1
2023-03-02T08:57:59.421Z,3.1
2023-03-02T08:58:59.992Z,3.1
2023-03-02T08:59:59.589Z,3.1
2023-03-02T09:01:00.267Z,3
2023-03-02T09:01:59.840Z,3.1
2023-03-02T09:02:59.443Z,3.1
2023-03-02T09:04:00.121Z,3.2
2023-03-02T09:04:59.696Z,3.2
2023-03-02T09:06:00.239Z,3.2
2023-03-02T09:06:59.855Z,3.3
2023-03-02T09:07:59.407Z,3.3
2023-03-02T09:09:00.003Z,3.3
2023-03-02T09:09:59.614Z,3.3
2023-03-02T09:11:00.178Z,3.3
2023-03-02T09:11:59.798Z,3.4
2023-03-02T09:12:59.362Z,3.3
2023-03-02T09:13:59.943Z,3.3
2023-03-02T09:14:59.533Z,3.4
2023-03-02T09:16:00.117Z,3.4
2023-03-02T09:16:59.887Z,3.4
2023-03-02T09:17:59.318Z,3.5
2023-03-02T09:18:59.982Z,3.5
2023-03-02T09:19:59.569Z,3.5
2023-03-02T09:21:00.144Z,3.5
2023-03-02T09:21:59.759Z,3.5
2023-03-02T09:22:59.374Z,3.5
2023-03-02T09:23:59.948Z,3.6
2023-03-02T09:24:59.565Z,3.6
2023-03-02T09:26:00.145Z,3.7
2023-03-02T09:26:59.741Z,3.7
2023-03-02T09:27:59.327Z,3.7
2023-03-02T09:28:59.909Z,3.8
2023-03-02T09:29:59.531Z,3.8
2023-03-02T09:31:00.116Z,3.9
2023-03-02T09:31:59.879Z,3.8
2023-03-02T09:33:00.433Z,3.8
2023-03-02T09:34:00.102Z,3.8
2023-03-02T09:34:59.611Z,3.9
2023-03-02T09:36:00.115Z,4
2023-03-02T09:36:59.764Z,4.1
2023-03-02T09:38:00.300Z,4
2023-03-02T09:38:59.901Z,4.1
2023-03-02T09:39:59.515Z,4
2023-03-02T09:41:00.111Z,4.1
2023-03-02T09:41:59.706Z,4
2023-03-02T09:43:00.278Z,4
2023-03-02T09:44:00.230Z,4
2023-03-02T09:44:59.520Z,4.1
2023-03-02T09:46:00.210Z,4.2
2023-03-02T09:46:59.833Z,4.3
2023-03-02T09:47:59.325Z,4.3
2023-03-02T09:49:01.220Z,4.3
2023-03-02T09:49:59.471Z,4.3
2023-03-02T09:51:00.111Z,4.3
2023-03-02T09:51:59.700Z,4.3
2023-03-02T09:53:00.297Z,4.3
2023-03-02T09:53:59.898Z,4.4
2023-03-02T09:54:59.521Z,4.4
2023-03-02T09:56:00.291Z,4.5
2023-03-02T09:56:59.751Z,4.5
2023-03-02T09:57:59.339Z,4.5
2023-03-02T09:58:59.912Z,4.6
2023-03-02T10:00:04.004Z,4.6
2023-03-02T10:01:00.089Z,4.6
2023-03-02T10:01:59.691Z,4.6
2023-03-02T10:03:08.378Z,4.6
2023-03-02T10:03:59.902Z,4.6
2023-03-02T10:04:59.529Z,4.8
2023-03-02T10:06:00.098Z,4.9
2023-03-02T10:06:59.718Z,4.9
2023-03-02T10:08:00.270Z,4.8
2023-03-02T10:08:59.863Z,5
2023-03-02T10:09:59.474Z,5
2023-03-02T10:11:00.117Z,5
2023-03-02T10:11:59.707Z,5
2023-03-02T10:13:00.297Z,4.9
2023-03-02T10:13:59.899Z,5
2023-03-02T10:14:59.500Z,5.1
2023-03-02T10:16:00.187Z,5.1
2023-03-02T10:16:59.719Z,5
2023-03-02T10:18:00.333Z,5
2023-03-02T10:18:59.923Z,5
2023-03-02T10:19:59.512Z,5.1
2023-03-02T10:21:00.138Z,5.2
2023-03-02T10:21:59.728Z,5.2
2023-03-02T10:22:59.341Z,5.2
2023-03-02T10:23:59.903Z,5.3
2023-03-02T10:24:59.498Z,5.4
2023-03-02T10:26:00.095Z,5.4
2023-03-02T10:26:59.705Z,5.5
2023-03-02T10:28:00.270Z,5.5
2023-03-02T10:28:59.860Z,5.5
2023-03-02T10:29:59.469Z,5.6
2023-03-02T10:31:00.099Z,5.6
2023-03-02T10:31:59.734Z,5.6
2023-03-02T10:33:00.297Z,5.7
2023-03-02T10:33:59.887Z,5.7
2023-03-02T10:34:59.529Z,5.7
2023-03-02T10:36:00.115Z,5.7
2023-03-02T10:36:59.728Z,5.8
2023-03-02T10:38:00.339Z,5.9
2023-03-02T10:38:59.972Z,5.9
2023-03-02T10:39:59.550Z,5.9
2023-03-02T10:41:00.375Z,5.8
2023-03-02T10:41:59.871Z,5.9
2023-03-02T10:42:59.394Z,6
2023-03-02T10:43:59.989Z,6
2023-03-02T10:44:59.621Z,6
2023-03-02T10:46:00.290Z,6
2023-03-02T10:46:59.891Z,6.1
2023-03-02T10:47:59.447Z,6.2
2023-03-02T10:49:00.048Z,6
2023-03-02T10:49:59.646Z,6.1
2023-03-02T10:51:00.236Z,6.1
2023-03-02T10:51:59.853Z,6.2
2023-03-02T10:53:01.182Z,6.3
2023-03-02T10:53:59.959Z,6.4
2023-03-02T10:54:59.601Z,6.4
2023-03-02T10:56:00.138Z,6.4
2023-03-02T10:56:59.760Z,6.3
2023-03-02T10:57:59.312Z,6.3
2023-03-02T10:58:59.898Z,6.3
2023-03-02T10:59:59.486Z,6.3
2023-03-02T11:01:00.120Z,6.4
2023-03-02T11:01:59.791Z,6.4
2023-03-02T11:03:00.331Z,6.4
2023-03-02T11:03:59.939Z,6.5
2023-03-02T11:04:59.639Z,6.6
2023-03-02T11:06:00.107Z,6.5
2023-03-02T11:06:59.693Z,6.5
2023-03-02T11:08:00.270Z,6.5
2023-03-02T11:08:59.881Z,6.5
2023-03-02T11:09:59.484Z,6.5
2023-03-02T11:11:00.820Z,6.5
2023-03-02T11:12:00.164Z,6.6
2023-03-02T11:13:00.282Z,6.6
2023-03-02T11:13:59.903Z,6.6
2023-03-02T11:14:59.498Z,6.8
2023-03-02T11:16:00.165Z,6.8
2023-03-02T11:17:01.009Z,7
2023-03-02T11:18:00.282Z,6.9
2023-03-02T11:18:59.887Z,7
2023-03-02T11:19:59.475Z,7.1
2023-03-02T11:21:00.131Z,7.2
2023-03-02T11:21:59.719Z,7.2
2023-03-02T11:23:00.306Z,7.1
2023-03-02T11:23:59.917Z,7
2023-03-02T11:24:59.513Z,6.9
2023-03-02T11:26:00.156Z,7
2023-03-02T11:26:59.783Z,7.2
2023-03-02T11:27:59.340Z,7.2
2023-03-02T11:28:59.943Z,7.3
2023-03-02T11:29:59.542Z,7.3
2023-03-02T11:31:00.174Z,7.5
2023-03-02T11:31:59.791Z,7.5
2023-03-02T11:32:59.353Z,7.6
2023-03-02T11:34:07.752Z,7.6
2023-03-02T11:34:59.550Z,7.6
2023-03-02T11:36:00.252Z,7.6
2023-03-02T11:36:59.819Z,7.6
2023-03-02T11:37:59.381Z,7.7
2023-03-02T11:38:59.975Z,7.7
2023-03-02T11:39:59.569Z,7.8
2023-03-02T11:41:00.184Z,7.9
2023-03-02T11:41:59.803Z,7.8
2023-03-02T11:42:59.388Z,8
2023-03-02T11:43:59.943Z,7.9
2023-03-02T11:44:59.533Z,7.9
2023-03-02T11:46:00.139Z,7.9
2023-03-02T11:46:59.785Z,7.9
2023-03-02T11:48:03.039Z,7.9
2023-03-02T11:48:59.868Z,7.9
2023-03-02T11:49:59.461Z,7.9
2023-03-02T11:51:00.083Z,8
2023-03-02T11:51:59.703Z,7.9
2023-03-02T11:53:00.272Z,7.8
2023-03-02T11:53:59.923Z,7.7
2023-03-02T11:54:59.514Z,7.5
2023-03-02T11:56:00.097Z,7.5
2023-03-02T11:56:59.709Z,7.7
2023-03-02T11:58:59.879Z,8
2023-03-02T11:59:59.473Z,8.1
2023-03-02T12:01:00.075Z,7.9
2023-03-02T12:01:59.760Z,7.9
2023-03-02T12:03:00.240Z,7.7
2023-03-02T12:03:59.843Z,7.8
2023-03-02T12:04:59.528Z,7.9
2023-03-02T12:06:00.044Z,7.8
2023-03-02T12:06:59.665Z,7.8
2023-03-02T12:08:00.227Z,7.8
2023-03-02T12:08:59.862Z,7.8
2023-03-02T12:09:59.409Z,8
2023-03-02T12:10:59.992Z,8
2023-03-02T12:11:59.604Z,8
2023-03-02T12:13:00.171Z,8
2023-03-02T12:13:59.763Z,7.9
2023-03-02T12:14:59.369Z,8
2023-03-02T12:15:59.977Z,7.9
2023-03-02T12:16:59.686Z,8
2023-03-02T12:18:00.243Z,8.2
2023-03-02T12:18:59.818Z,8.2
2023-03-02T12:19:59.426Z,8.1
2023-03-02T12:21:00.000Z,8.2
2023-03-02T12:21:59.589Z,8.3
2023-03-02T12:23:00.677Z,8.3
2023-03-02T12:23:59.836Z,8.3
2023-03-02T12:24:59.434Z,8.3
2023-03-02T12:25:59.990Z,8.3
2023-03-02T12:26:59.584Z,8.3
2023-03-02T12:28:00.167Z,8.3
2023-03-02T12:28:59.756Z,8.4
2023-03-02T12:29:59.358Z,8.5
2023-03-02T12:30:59.970Z,8.3
2023-03-02T12:31:59.713Z,8.6
2023-03-02T12:33:00.215Z,8.4
2023-03-02T12:33:59.807Z,8.5
2023-03-02T12:34:59.394Z,8.5
2023-03-02T12:36:00.075Z,8.6
2023-03-02T12:36:59.683Z,8.7
2023-03-02T12:38:00.338Z,8.7
2023-03-02T12:38:59.890Z,8.6
2023-03-02T12:40:00.964Z,8.6
2023-03-02T12:41:00.041Z,8.6
2023-03-02T12:41:59.644Z,8.7
2023-03-02T12:43:00.265Z,8.6
2023-03-02T12:43:59.907Z,8.6
2023-03-02T12:44:59.482Z,8.6
2023-03-02T12:46:00.093Z,8.5
2023-03-02T12:46:59.721Z,8.5
2023-03-02T12:48:00.711Z,8.6
2023-03-02T12:48:59.698Z,8.7
2023-03-02T12:49:59.367Z,8.8
2023-03-02T12:50:59.987Z,8.9
2023-03-02T12:51:59.682Z,8.8
2023-03-02T12:53:00.196Z,8.8
2023-03-02T12:53:59.793Z,8.8
2023-03-02T12:54:59.369Z,8.9
2023-03-02T12:56:00.015Z,8.8
2023-03-02T12:56:59.603Z,8.8
2023-03-02T12:58:00.177Z,8.8
2023-03-02T12:58:59.797Z,8.8
2023-03-02T12:59:59.355Z,8.7
2023-03-02T13:01:00.015Z,8.8
2023-03-02T13:01:59.605Z,8.6
2023-03-02T13:03:00.302Z,8.6
2023-03-02T13:03:59.871Z,8.6
2023-03-02T13:04:59.429Z,8.7
2023-03-02T13:06:00.028Z,8.9
2023-03-02T13:06:59.629Z,8.9
2023-03-02T13:08:00.213Z,8.9
2023-03-02T13:08:59.849Z,9
2023-03-02T13:09:59.464Z,9
2023-03-02T13:10:59.973Z,9.1
2023-03-02T13:11:59.592Z,9.2
2023-03-02T13:13:00.319Z,9.1
2023-03-02T13:13:59.840Z,9
2023-03-02T13:14:59.421Z,8.9
2023-03-02T13:15:59.999Z,9
2023-03-02T13:16:59.640Z,8.9
2023-03-02T13:18:00.218Z,8.9
2023-03-02T13:18:59.880Z,8.8
2023-03-02T13:19:59.433Z,8.8
2023-03-02T13:21:00.011Z,8.8
2023-03-02T13:21:59.725Z,8.8
2023-03-02T13:23:00.232Z,8.8
2023-03-02T13:23:59.849Z,8.9
2023-03-02T13:24:59.396Z,9
2023-03-02T13:25:59.986Z,9.1
2023-03-02T13:26:59.583Z,9.1
2023-03-02T13:28:00.189Z,9.1
2023-03-02T13:28:59.781Z,9
2023-03-02T13:29:59.393Z,8.9
2023-03-02T13:31:00.065Z,8.9
2023-03-02T13:31:59.629Z,8.9
2023-03-02T13:33:00.185Z,8.8
2023-03-02T13:33:59.774Z,8.8
2023-03-02T13:34:59.418Z,8.8
2023-03-02T13:35:59.955Z,8.9
2023-03-02T13:36:59.618Z,9
2023-03-02T13:38:00.203Z,8.9
2023-03-02T13:38:59.799Z,9
2023-03-02T13:39:59.396Z,9
2023-03-02T13:40:59.986Z,9.2
2023-03-02T13:41:59.595Z,9.3